Latest Coastal Weather Observations for Bairnsdale

IDV60701

Issued at 5:01 am EST Wednesday 22 April 2015 (issued every 10 minutes, with the page automatically refreshed every 10 minutes)

About coastal observations | Map of coastal stations | Coastal observations for VIC | Marine services | Other Formats
Station Details ID: 085279 Name: BAIRNSDALE AIRPORT Lat: -37.88 Lon: 147.57 Height: 49.4 m
Data from the previous 72 hours. | See also: Recent months at Bairnsdale
Date/Time
EST
Temp

°C
Wind Pressure Rain
since 9am
mm
Weather Cloud Vis
km
Sea
Height
m
Swell
Dir
 
Speed
knots
Gust
knots
hPa Trend Height
m
Period
s
Dir
22/05:00am 12.8 W 4 5 1025.4 - 4.4 - Partly cloudy 10 - - - -
22/04:30am 12.0 NNE 7 12 1025.6 - 4.4 - Cloudy 10 - - - -
22/04:16am 12.2 SW 7 9 1025.3 - 4.4 - Cloudy 10 - - - -
22/04:00am 12.0 WSW 7 8 1025.3 - 4.4 - Cloudy 4 - - - -
22/03:42am 11.7 WSW 7 8 1025.4 - 3.2 - Cloudy 5 - - - -
22/03:30am 11.7 WSW 7 9 1025.4 - 3.2 - Cloudy 10 - - - -
22/03:19am 11.6 WSW 6 9 1025.6 - 3.2 - Cloudy 10 - - - -
22/03:02am 11.4 SW 7 8 1025.9 - 3.0 - Partly cloudy 5 - - - -
22/03:00am 11.4 SW 7 9 1025.9 - 2.8 Recent precip. Cloudy 6 - - - -
22/02:59am 11.4 SW 7 9 1026.0 - 2.8 - Partly cloudy 7 - - - -
22/02:30am 11.3 WSW 6 8 1026.3 - 2.2 - Partly cloudy 5 - - - -
22/02:00am 11.2 WSW 7 9 1026.7 - 1.4 - Partly cloudy 4 - - - -
22/01:30am 11.3 WSW 7 8 1027.1 - 0.8 - Partly cloudy 5 - - - -
22/01:29am 11.3 WSW 6 8 1027.1 - 0.8 - Partly cloudy 5 - - - -
22/01:05am 11.4 W 5 6 1027.3 - 0.6 - Partly cloudy 5 - - - -
22/01:00am 11.4 WNW 5 6 1027.3 - 0.4 - Partly cloudy 7 - - - -
22/12:30am 11.5 WNW 5 6 1027.6 - 0.4 - Partly cloudy 10 - - - -
22/12:00am 11.6 WNW 4 5 1027.9 - 0.2 - Cloudy 10 - - - -
 
Date/Time
EST
Temp

°C
Wind Pressure Rain
since 9am
mm
Weather Cloud Vis
km
Sea
Height
m
Swell
Dir
 
Speed
knots
Gust
knots
hPa Trend Height
m
Period
s
Dir
21/11:30pm 11.5 WNW 5 7 1028.1 - 0.2 - Partly cloudy 10 - - - -
21/11:00pm 11.5 WNW 6 8 1028.5 - 0.2 - Partly cloudy 10 - - - -
21/10:30pm 11.5 WNW 6 8 1029.0 - 0.2 - Partly cloudy 10 - - - -
21/10:00pm 11.4 WNW 7 9 1029.4 - 0.2 - Partly cloudy 10 - - - -
21/09:30pm 11.5 NW 6 8 1029.7 - 0.2 - Partly cloudy 9 - - - -
21/09:00pm 11.6 NW 5 6 1029.6 - 0.0 - Cloudy 10 - - - -
21/08:30pm 11.6 NW 5 6 1029.6 - 0.0 - Partly cloudy 10 - - - -
21/08:00pm 11.6 NNW 4 5 1029.8 - 0.0 - Partly cloudy 10 - - - -
21/07:30pm 12.3 ENE 9 12 1030.1 - 0.0 - Partly cloudy 10 - - - -
21/07:00pm 13.7 SE 7 9 1030.1 - 0.0 - Partly cloudy 10 - - - -
21/06:30pm 14.0 SE 9 13 1029.9 - 0.0 - Partly cloudy 10 - - - -
21/06:00pm 14.2 S 6 9 1029.6 - 0.0 - Cloudy 10 - - - -
21/05:30pm 14.4 S 9 11 1029.5 - 0.0 - Partly cloudy 10 - - - -
21/05:00pm 14.4 S 8 10 1029.5 - 0.0 - Partly cloudy 10 - - - -
21/04:30pm 15.1 SSE 10 15 1029.6 - 0.0 - Partly cloudy 10 - - - -
21/04:00pm 15.1 SSE 9 13 1029.7 - 0.0 - Partly cloudy 10 - - - -
21/03:30pm 15.3 SSE 10 15 1029.9 - 0.0 - Cloudy 10 - - - -
21/03:00pm 16.1 SE 10 13 1029.9 - 0.0 - Partly cloudy 10 - - - -
21/02:30pm 16.4 SSE 10 14 1029.8 - 0.0 - Partly cloudy 10 - - - -
21/02:00pm 16.3 S 11 15 1029.9 - 0.0 - Partly cloudy 10 - - - -
21/01:30pm 15.8 SE 11 13 1030.4 - 0.0 - Partly cloudy 10 - - - -
21/01:00pm 15.6 SSE 9 14 1030.5 - 0.0 - Partly cloudy 10 - - - -
21/12:30pm 15.7 SSE 7 11 1031.0 - 0.0 - Partly cloudy 10 - - - -
21/12:00pm 16.3 SSE 9 13 1031.4 - 0.0 - Partly cloudy 10 - - - -
21/11:30am 15.6 SSE 6 11 1031.7 - 0.0 - - 10 - - - -
21/11:00am 15.3 SSW 5 9 1032.1 - 0.0 - - 10 - - - -
21/10:30am 14.1 SW 5 7 1032.4 - 0.0 - - 10 - - - -
21/10:00am 13.4 SW 5 7 1032.9 - 0.0 - - 10 - - - -
21/09:30am 12.0 W 5 7 1033.1 - 0.0 - - 10 - - - -
21/09:00am 10.9 W 6 8 1033.5 - 1.2 - - 10 - - - -
21/08:30am 9.6 W 7 10 1033.5 - 1.2 - - 10 - - - -
21/08:00am 8.2 NW 7 10 1033.5 - 1.2 - - 10 - - - -
21/07:30am 6.5 WNW 8 10 1033.2 - 1.2 - Partly cloudy 10 - - - -
21/07:00am 5.2 WNW 7 9 1033.2 - 1.2 - - 10 - - - -
21/06:30am 5.4 WNW 6 8 1033.2 - 1.2 - Partly cloudy 10 - - - -
21/06:00am 4.9 WNW 7 8 1033.1 - 1.2 - - 10 - - - -
21/05:30am 4.8 WNW 7 7 1032.9 - 1.2 - - 10 - - - -
21/05:00am 5.6 WNW 5 7 1032.6 - 1.2 - Partly cloudy 10 - - - -
21/04:30am 6.4 W 6 7 1032.5 - 1.2 - Partly cloudy 10 - - - -
21/04:00am 6.7 W 6 8 1032.4 - 1.2 - Partly cloudy 10 - - - -
21/03:30am 6.8 W 5 6 1032.5 - 1.2 - Cloudy 10 - - - -
21/03:00am 6.7 W 7 9 1032.5 - 1.2 - Cloudy 10 - - - -
21/02:30am 6.8 NW 7 9 1032.7 - 1.2 - Partly cloudy 10 - - - -
21/02:00am 6.4 NW 5 6 1033.1 - 1.2 - Partly cloudy 10 - - - -
21/01:30am 6.0 NW 4 5 1033.5 - 1.2 - Partly cloudy 10 - - - -
21/01:00am 6.8 WNW 4 5 1033.8 - 1.2 - Partly cloudy 10 - - - -
21/12:30am 8.1 SW 6 7 1034.1 - 1.2 - Partly cloudy 10 - - - -
21/12:00am 6.7 SW 7 8 1034.1 - 1.2 - Mostly clear 10 - - - -
 
Date/Time
EST
Temp

°C
Wind Pressure Rain
since 9am
mm
Weather Cloud Vis
km
Sea
Height
m
Swell
Dir
 
Speed
knots
Gust
knots
hPa Trend Height
m
Period
s
Dir
20/11:30pm 6.3 WSW 4 6 1034.1 - 1.2 - Partly cloudy 10 - - - -
20/11:00pm 6.0 SW 5 6 1034.3 - 1.2 - - 10 - - - -
20/10:30pm 6.8 SW 6 7 1034.4 - 1.2 - - 10 - - - -
20/10:00pm 7.3 SW 7 8 1034.6 - 1.2 - - 10 - - - -
20/09:30pm 7.8 SW 7 8 1034.7 - 1.2 - Partly cloudy 10 - - - -
20/09:00pm 7.5 SW 5 6 1034.8 - 1.2 - - 10 - - - -
20/08:30pm 7.7 SSW 7 8 1034.7 - 1.2 - - 10 - - - -
20/08:00pm 9.1 S 8 9 1034.8 - 1.2 - Partly cloudy 10 - - - -
20/07:30pm 10.3 S 7 8 1034.7 - 1.2 - Partly cloudy 10 - - - -
20/07:00pm 11.1 SSE 9 12 1034.7 - 1.2 - Partly cloudy 10 - - - -
20/06:30pm 11.4 S 7 9 1034.6 - 0.8 - Partly cloudy 10 - - - -
20/06:00pm 10.7 SSW 8 9 1034.2 - 0.8 - Mostly clear 10 - - - -
20/05:30pm 12.0 S 8 9 1034.2 - 0.8 - - 10 - - - -
20/05:00pm 13.2 SSE 9 12 1034.1 - 0.8 - - 10 - - - -
20/04:30pm 14.3 SSE 12 17 1033.9 - 0.8 - Partly cloudy 10 - - - -
20/04:00pm 14.3 SSE 12 17 1033.8 - 0.8 - Partly cloudy 10 - - - -
20/03:30pm 15.0 SSE 12 16 1033.8 - 0.8 - Partly cloudy 10 - - - -
20/03:00pm 14.2 SSE 13 18 1033.8 - 0.8 - Cloudy 10 - - - -
20/02:30pm 14.9 S 13 19 1034.1 - 0.8 - Partly cloudy 10 - - - -
20/02:00pm 14.7 S 13 18 1034.1 - 0.8 - Partly cloudy 10 - - - -
20/01:30pm 14.7 S 12 18 1034.3 - 0.8 - Partly cloudy 10 - - - -
20/01:00pm 11.8 NNE 4 7 1034.7 - 0.8 - Partly cloudy 10 - - - -
20/12:45pm 11.2 NNE 7 20 1034.9 - 0.8 - Partly cloudy 10 - - - -
20/12:34pm 10.6 ENE 14 27 1035.1 - 0.8 - Partly cloudy 5 - - - -
20/12:30pm 11.6 ESE 15 27 1035.1 - 0.8 - Partly cloudy 7 - - - -
20/12:29pm 11.6 SE 15 27 1035.1 - 0.8 - Partly cloudy 8 - - - -
20/12:26pm 11.6 SSE 15 27 1035.1 - 0.2 - Partly cloudy 10 - - - -
20/12:00pm 14.3 SSW 6 12 1035.1 - 0.0 - Cloudy 10 - - - -
20/11:30am 13.7 NNW 7 9 1035.6 - 0.0 - Partly cloudy 10 - - - -
20/11:00am 13.1 NNW 6 9 1036.0 - 0.0 - Partly cloudy 10 - - - -
20/10:30am 12.1 WNW 7 9 1036.0 - 0.0 - Partly cloudy 10 - - - -
20/10:00am 10.8 WNW 8 10 1036.1 - 0.0 - Partly cloudy 10 - - - -
20/09:30am 10.0 NW 9 11 1036.1 - 0.0 - - 10 - - - -
20/09:00am 8.5 NW 7 11 1036.4 - 4.0 - Cloudy 10 - - - -
20/08:30am 8.0 WNW 7 9 1036.5 - 4.0 - Partly cloudy 10 - - - -
20/08:00am 7.7 WNW 9 11 1036.2 - 4.0 - Partly cloudy 10 - - - -
20/07:30am 6.9 NNW 7 9 1036.0 - 3.8 - Partly cloudy 10 - - - -
20/07:00am 6.5 WNW 9 12 1035.4 - 3.8 - Partly cloudy 10 - - - -
20/06:30am 6.9 WNW 9 12 1035.2 - 3.8 - Partly cloudy 10 - - - -
20/06:00am 6.6 W 8 10 1035.0 - 3.6 Rain Cloudy 10 - - - -
20/05:30am 6.0 WNW 9 11 1034.5 - 3.4 - Partly cloudy 10 - - - -
20/05:00am 6.3 WNW 10 13 1034.0 - 3.4 - Partly cloudy 10 - - - -
20/04:30am 6.1 NW 9 11 1034.1 - 3.4 - Partly cloudy 10 - - - -
20/04:00am 5.8 NW 9 11 1033.5 - 3.2 - - 10 - - - -
20/03:30am 6.3 NW 8 10 1033.3 - 3.2 - Partly cloudy 10 - - - -
20/03:00am 6.8 WSW 8 10 1033.7 - 3.2 - Partly cloudy 10 - - - -
20/02:30am 6.7 WSW 6 7 1034.1 - 3.2 - Partly cloudy 10 - - - -
20/02:00am 5.2 WNW 7 8 1033.8 - 3.2 - - 10 - - - -
20/01:30am 5.7 NW 8 9 1033.9 - 3.2 - - 10 - - - -
20/01:00am 6.5 WNW 9 10 1033.9 - 3.2 - Partly cloudy 10 - - - -
20/12:45am 6.6 NW 7 10 1034.0 - 3.2 - Partly cloudy 10 - - - -
20/12:30am 6.9 N 6 10 1034.1 - 3.2 - Partly cloudy 3 - - - -
20/12:26am 7.1 ENE 7 10 1034.1 - 3.0 - Partly cloudy 5 - - - -
20/12:00am 6.3 NW 6 7 1033.7 - 2.4 - Cloudy 10 - - - -
 
Date/Time
EST
Temp

°C
Wind Pressure Rain
since 9am
mm
Weather Cloud Vis
km
Sea
Height
m
Swell
Dir
 
Speed
knots
Gust
knots
hPa Trend Height
m
Period
s
Dir
19/11:30pm 6.5 WNW 7 9 1033.7 - 2.4 - - 10 - - - -
19/11:00pm 6.9 W 7 9 1033.5 - 2.4 - - 10 - - - -
19/10:30pm 7.8 W 9 11 1033.4 - 2.4 - - 10 - - - -
19/10:00pm 8.7 W 10 14 1033.2 - 2.4 - Partly cloudy 10 - - - -
19/09:30pm 8.6 WSW 8 10 1033.2 - 2.4 - Partly cloudy 10 - - - -
19/09:00pm 9.1 WSW 9 12 1032.7 - 2.4 - Mostly cloudy 10 - - - -
19/08:30pm 9.6 WSW 11 15 1032.3 - 2.4 - - 10 - - - -
19/08:00pm 9.6 WSW 11 15 1031.6 - 2.4 - Partly cloudy 10 - - - -
19/07:30pm 9.9 WSW 9 12 1031.3 - 2.4 - Partly cloudy 10 - - - -
19/07:00pm 10.3 SW 11 15 1030.9 - 2.4 - Partly cloudy 10 - - - -
19/06:30pm 9.5 WSW 8 11 1030.4 - 2.4 - - 10 - - - -
19/06:00pm 10.4 SW 11 14 1029.8 - 2.4 - - 10 - - - -
19/05:30pm 11.5 SW 13 18 1029.3 - 2.4 - Partly cloudy 10 - - - -
19/05:00pm 12.7 SSW 15 20 1028.7 - 2.4 - Partly cloudy 10 - - - -
19/04:30pm 13.4 SSW 17 21 1028.1 - 2.4 - - 10 - - - -
19/04:00pm 13.9 SW 18 23 1027.3 - 2.4 - Partly cloudy 10 - - - -
19/03:42pm 14.3 SW 17 27 1027.1 - 2.4 - Partly cloudy 10 - - - -
19/03:30pm 14.2 SSE 9 20 1026.9 - 2.4 - Partly cloudy 10 - - - -
19/03:00pm 12.6 SSE 8 12 1026.8 - 2.4 - Cloudy 10 - - - -
19/02:30pm 11.0 SE 9 13 1026.5 - 2.4 - Partly cloudy 10 - - - -
19/02:11pm 10.1 SE 7 10 1026.4 - 2.4 - Partly cloudy 10 - - - -
19/02:00pm 9.4 SE 10 17 1026.2 - 2.4 - Partly cloudy 4 - - - -
19/01:52pm 9.2 SE 13 19 1026.1 - 1.8 - Partly cloudy 5 - - - -
19/01:30pm 10.6 SSE 13 16 1025.7 - 0.2 - Partly cloudy 10 - - - -
19/01:00pm 14.3 SSW 13 24 1025.0 - 0.0 - Partly cloudy 10 - - - -
19/12:30pm 15.1 WSW 17 24 1024.8 - 0.0 - Partly cloudy 10 - - - -
19/12:00pm 15.7 WSW 17 25 1025.0 - 0.0 - Mostly cloudy 10 - - - -
19/11:30am 14.0 W 15 21 1025.0 - 0.0 - Partly cloudy 10 - - - -
19/11:00am 14.3 W 13 19 1024.8 - 0.0 - Partly cloudy 10 - - - -
19/10:30am 14.1 WSW 14 20 1024.6 - 0.0 - - 10 - - - -
19/10:00am 13.0 WSW 15 21 1024.3 - 0.0 - Partly cloudy 10 - - - -
19/09:30am 12.4 WSW 13 17 1023.9 - 0.0 - - 10 - - - -
19/09:00am 11.9 W 13 19 1023.5 - 3.8 - - 10 - - - -
19/08:30am 11.6 W 12 17 1022.8 - 3.8 - - 10 - - - -
19/08:00am 10.5 W 11 13 1022.2 - 3.8 - - 10 - - - -
19/07:30am 9.9 W 13 17 1021.3 - 3.8 - Partly cloudy 10 - - - -
19/07:00am 9.8 W 10 14 1020.9 - 3.8 - Cloudy 10 - - - -
19/06:30am 10.1 WNW 9 11 1020.2 - 3.8 - Cloudy 10 - - - -
19/06:00am 10.1 W 9 13 1019.7 - 3.8 - Mostly cloudy 10 - - - -
19/05:30am 9.9 WNW 9 13 1019.4 - 3.8 - Partly cloudy 10 - - - -

Other Formats:

Comma delimited format used in spreadsheet applications
http://www.bom.gov.au/fwo/IDV60701/IDV60701.94912.axf

JavaScript Object Notation format (JSON) in row-major order
http://www.bom.gov.au/fwo/IDV60701/IDV60701.94912.json